createdAt,value
2022-10-10T00:01:45.507Z,1.70
2022-10-10T00:04:13.887Z,1.70
2022-10-10T00:06:41.954Z,1.63
2022-10-10T00:09:10.043Z,1.73
2022-10-10T00:11:38.113Z,1.93
2022-10-10T00:14:06.349Z,1.70
2022-10-10T00:16:36.159Z,1.83
2022-10-10T00:19:04.269Z,2.03
2022-10-10T00:21:32.338Z,2.03
2022-10-10T00:24:00.780Z,1.90
2022-10-10T00:26:28.821Z,2.30
2022-10-10T00:28:56.915Z,1.83
2022-10-10T00:31:25.129Z,1.90
2022-10-10T00:33:54.574Z,1.90
2022-10-10T00:36:22.957Z,1.63
2022-10-10T00:38:51.002Z,2.10
2022-10-10T00:41:19.053Z,1.93
2022-10-10T00:44:03.028Z,1.63
2022-10-10T00:46:31.015Z,2.80
2022-10-10T00:49:00.422Z,2.10
2022-10-10T00:51:28.558Z,2.03
2022-10-10T00:53:57.907Z,1.90
2022-10-10T00:56:28.806Z,1.77
2022-10-10T00:58:57.983Z,2.00
2022-10-10T01:01:26.087Z,1.93
2022-10-10T01:03:55.006Z,1.60
2022-10-10T01:06:24.497Z,2.20
2022-10-10T01:08:52.574Z,1.60
2022-10-10T01:11:39.726Z,1.70
2022-10-10T01:14:11.542Z,2.23
2022-10-10T01:16:41.981Z,2.00
2022-10-10T01:19:19.839Z,1.70
2022-10-10T01:21:52.350Z,2.10
2022-10-10T01:24:30.474Z,1.90
2022-10-10T01:27:31.424Z,1.90
2022-10-10T01:30:02.957Z,1.90
2022-10-10T01:32:34.142Z,2.03
2022-10-10T01:35:09.272Z,2.10
2022-10-10T01:37:41.642Z,1.80
2022-10-10T01:40:12.942Z,1.93
2022-10-10T01:42:43.114Z,2.10
2022-10-10T01:45:12.614Z,1.90
2022-10-10T01:47:40.599Z,2.00
2022-10-10T01:50:17.636Z,1.80
2022-10-10T01:52:50.901Z,1.90
2022-10-10T01:55:35.465Z,1.80
2022-10-10T01:58:14.653Z,1.87
2022-10-10T02:00:47.341Z,1.60
2022-10-10T02:03:17.127Z,1.80
2022-10-10T02:05:47.611Z,1.80
2022-10-10T02:08:17.198Z,2.00
2022-10-10T02:10:47.763Z,2.30
2022-10-10T02:13:15.854Z,1.73
2022-10-10T02:15:46.958Z,1.97
2022-10-10T02:18:16.288Z,1.87
2022-10-10T02:20:44.408Z,1.97
2022-10-10T02:23:12.674Z,1.87
2022-10-10T02:25:40.780Z,2.20
2022-10-10T02:28:09.874Z,1.80
2022-10-10T02:30:39.138Z,2.00
2022-10-10T02:33:08.863Z,2.30
2022-10-10T02:35:38.404Z,1.90
2022-10-10T02:38:07.279Z,1.90
2022-10-10T02:40:35.527Z,2.00
2022-10-10T02:43:04.598Z,2.20
2022-10-10T02:45:33.297Z,2.10
2022-10-10T02:48:01.363Z,2.23
2022-10-10T02:50:30.885Z,2.77
2022-10-10T02:52:59.044Z,2.30
2022-10-10T02:55:27.094Z,2.03
2022-10-10T02:57:56.336Z,2.37
2022-10-10T03:00:24.669Z,1.80
2022-10-10T03:02:53.078Z,2.27
2022-10-10T03:05:21.359Z,2.03
2022-10-10T03:07:51.123Z,1.90
2022-10-10T03:10:19.277Z,2.20
2022-10-10T03:12:47.478Z,2.30
2022-10-10T03:15:16.072Z,2.40
2022-10-10T03:17:44.390Z,2.50
2022-10-10T03:20:12.637Z,1.90
2022-10-10T03:22:40.752Z,1.90
2022-10-10T03:25:10.318Z,2.00
2022-10-10T03:27:38.611Z,2.43
2022-10-10T03:30:07.582Z,1.77
2022-10-10T03:32:35.590Z,1.80
2022-10-10T03:35:03.675Z,1.90
2022-10-10T03:37:32.072Z,1.90
2022-10-10T03:40:00.108Z,1.90
2022-10-10T03:42:29.789Z,2.30
2022-10-10T03:44:57.789Z,2.53
2022-10-10T03:47:25.827Z,2.00
2022-10-10T03:49:53.815Z,2.20
2022-10-10T03:52:21.948Z,2.50
2022-10-10T03:54:50.245Z,1.90
2022-10-10T03:57:18.198Z,2.10
2022-10-10T03:59:47.643Z,2.30
2022-10-10T04:02:15.632Z,2.13
2022-10-10T04:04:43.606Z,1.90
2022-10-10T04:07:11.693Z,2.03
2022-10-10T04:09:40.397Z,2.00
2022-10-10T04:12:08.413Z,1.93
2022-10-10T04:14:36.419Z,2.33
2022-10-10T04:17:05.841Z,2.10
2022-10-10T04:19:33.803Z,1.80
2022-10-10T04:22:01.848Z,2.03
2022-10-10T04:24:30.337Z,2.00
2022-10-10T04:26:58.379Z,2.30
2022-10-10T04:29:26.491Z,2.40
2022-10-10T04:31:54.873Z,2.00
2022-10-10T04:34:24.310Z,2.00
2022-10-10T04:36:52.801Z,2.63
2022-10-10T04:39:20.872Z,2.30
2022-10-10T04:41:49.970Z,2.30
2022-10-10T04:44:18.038Z,2.50
2022-10-10T04:46:46.258Z,2.60
2022-10-10T04:49:14.272Z,2.63
2022-10-10T04:51:44.055Z,2.93
2022-10-10T04:54:13.289Z,3.07
2022-10-10T04:56:42.587Z,2.87
2022-10-10T04:59:10.574Z,3.13
2022-10-10T05:01:38.714Z,2.10
2022-10-10T05:04:07.122Z,2.33
2022-10-10T05:06:35.520Z,2.20
2022-10-10T05:09:04.926Z,2.30
2022-10-10T05:11:32.933Z,2.47
2022-10-10T05:14:00.992Z,2.10
2022-10-10T05:16:29.013Z,2.63
2022-10-10T05:18:57.846Z,2.00
2022-10-10T05:21:26.004Z,2.67
2022-10-10T05:23:54.013Z,2.30
2022-10-10T05:26:23.415Z,2.20
2022-10-10T05:28:51.450Z,2.10
2022-10-10T05:31:19.787Z,2.67
2022-10-10T05:33:47.736Z,2.33
2022-10-10T05:36:15.735Z,2.83
2022-10-10T05:38:43.723Z,3.10
2022-10-10T05:41:12.641Z,2.40
2022-10-10T05:43:41.994Z,2.50
2022-10-10T05:46:10.362Z,2.80
2022-10-10T05:48:38.515Z,2.67
2022-10-10T05:51:07.677Z,2.10
2022-10-10T05:53:35.618Z,2.40
2022-10-10T05:56:03.623Z,2.20
2022-10-10T05:58:31.986Z,2.10
2022-10-10T06:01:05.246Z,2.03
2022-10-10T06:03:33.391Z,3.07
2022-10-10T06:06:01.394Z,2.27
2022-10-10T06:08:31.486Z,2.70
2022-10-10T06:11:02.994Z,2.20
2022-10-10T06:13:30.998Z,2.10
2022-10-10T06:15:59.218Z,2.13
2022-10-10T06:18:28.593Z,2.50
2022-10-10T06:20:56.628Z,2.40
2022-10-10T06:23:24.762Z,2.40
2022-10-10T06:25:53.221Z,2.70
2022-10-10T06:28:21.522Z,2.50
2022-10-10T06:30:50.533Z,3.40
2022-10-10T06:33:19.375Z,2.60
2022-10-10T06:35:49.373Z,2.70
2022-10-10T06:38:17.603Z,2.60
2022-10-10T06:40:45.783Z,2.70
2022-10-10T06:43:14.553Z,2.43
2022-10-10T06:45:43.380Z,2.73
2022-10-10T06:48:11.459Z,2.70
2022-10-10T06:50:39.445Z,2.40
2022-10-10T06:53:09.176Z,2.50
2022-10-10T06:55:37.235Z,2.47
2022-10-10T06:58:05.367Z,2.80
2022-10-10T07:00:33.458Z,2.40
2022-10-10T07:03:01.598Z,3.10
2022-10-10T07:05:30.004Z,2.60
2022-10-10T07:07:58.017Z,3.33
2022-10-10T07:10:27.407Z,2.53
2022-10-10T07:12:55.584Z,2.50
2022-10-10T07:15:23.975Z,2.53
2022-10-10T07:17:58.372Z,2.63
2022-10-10T07:20:26.671Z,2.10
2022-10-10T07:22:54.716Z,2.73
2022-10-10T07:25:22.832Z,3.17
2022-10-10T07:27:52.297Z,2.93
2022-10-10T07:30:20.470Z,2.70
2022-10-10T07:32:49.021Z,2.80
2022-10-10T07:35:17.611Z,2.70
2022-10-10T07:37:46.088Z,2.67
2022-10-10T07:40:14.165Z,3.47
2022-10-10T07:42:42.363Z,3.23
2022-10-10T07:45:12.381Z,2.70
2022-10-10T07:47:40.759Z,2.77
2022-10-10T07:50:09.304Z,2.37
2022-10-10T07:52:37.526Z,2.90
2022-10-10T07:55:07.961Z,2.47
2022-10-10T07:57:36.687Z,2.70
2022-10-10T08:00:06.201Z,2.27
2022-10-10T08:02:41.134Z,2.63
2022-10-10T08:05:09.816Z,2.63
2022-10-10T08:07:40.414Z,2.57
2022-10-10T08:10:11.030Z,2.53
2022-10-10T08:12:39.206Z,2.57
2022-10-10T08:15:08.391Z,3.10
2022-10-10T08:17:36.560Z,2.53
2022-10-10T08:20:06.694Z,2.87
2022-10-10T08:22:34.790Z,2.70
2022-10-10T08:25:02.949Z,2.47
2022-10-10T08:27:31.606Z,2.33
2022-10-10T08:29:59.862Z,3.37
2022-10-10T08:32:28.151Z,3.20
2022-10-10T08:34:56.218Z,3.30
2022-10-10T08:37:31.662Z,3.57
2022-10-10T08:40:01.963Z,3.13
2022-10-10T08:42:32.519Z,2.50
2022-10-10T08:45:05.427Z,2.57
2022-10-10T08:47:37.998Z,2.97
2022-10-10T08:50:07.812Z,2.60
2022-10-10T08:52:39.340Z,3.00
2022-10-10T08:55:09.067Z,2.20
2022-10-10T08:57:41.536Z,2.57
2022-10-10T09:00:13.693Z,2.50
2022-10-10T09:02:58.309Z,2.40
2022-10-10T09:05:37.932Z,2.77
2022-10-10T09:08:14.620Z,2.50
2022-10-10T09:10:46.840Z,2.73
2022-10-10T09:13:20.293Z,2.70
2022-10-10T09:15:53.341Z,2.67
2022-10-10T09:18:24.033Z,3.20
2022-10-10T09:20:54.977Z,3.10
2022-10-10T09:23:26.471Z,3.33
2022-10-10T09:25:57.165Z,3.00
2022-10-10T09:28:34.191Z,2.67
2022-10-10T09:31:02.291Z,3.10
2022-10-10T09:33:33.029Z,2.90
2022-10-10T09:36:01.438Z,2.70
2022-10-10T09:38:34.516Z,3.03
2022-10-10T09:41:04.115Z,3.37
2022-10-10T09:43:35.807Z,2.90
2022-10-10T09:46:03.995Z,2.87
2022-10-10T09:48:33.559Z,6.00
2022-10-10T09:51:02.097Z,3.17
2022-10-10T09:53:30.210Z,2.90
2022-10-10T09:55:59.798Z,2.60
2022-10-10T09:58:31.185Z,2.73
2022-10-10T10:01:13.830Z,6.70
2022-10-10T10:03:42.258Z,2.63
2022-10-10T10:06:13.057Z,2.73
2022-10-10T10:08:41.234Z,2.87
2022-10-10T10:11:23.130Z,2.47
2022-10-10T10:13:55.224Z,2.53
2022-10-10T10:16:31.845Z,2.77
2022-10-10T10:18:59.940Z,2.20
2022-10-10T10:21:28.008Z,2.70
2022-10-10T10:23:59.666Z,2.53
2022-10-10T10:26:32.097Z,2.57
2022-10-10T10:29:00.142Z,3.13
2022-10-10T10:31:54.130Z,3.43
2022-10-10T10:34:42.059Z,2.97
2022-10-10T10:37:18.067Z,2.60
2022-10-10T10:39:51.910Z,2.30
2022-10-10T10:42:33.210Z,2.30
2022-10-10T10:45:05.076Z,2.50
2022-10-10T10:47:39.253Z,2.67
2022-10-10T10:50:26.008Z,2.43
2022-10-10T10:53:03.735Z,2.10
2022-10-10T10:55:39.302Z,2.30
2022-10-10T11:01:38.495Z,2.50
2022-10-10T11:05:17.481Z,3.10
2022-10-10T11:07:18.476Z,3.17
2022-10-10T11:09:51.723Z,3.13
2022-10-10T11:12:26.730Z,5.10
2022-10-10T11:15:03.886Z,2.43
2022-10-10T11:17:37.132Z,3.13
2022-10-10T11:20:08.186Z,2.50
2022-10-10T11:22:37.680Z,3.13
2022-10-10T11:25:08.471Z,2.83
2022-10-10T11:27:39.863Z,2.43
2022-10-10T11:30:15.762Z,2.50
2022-10-10T11:32:51.492Z,2.57
2022-10-10T11:35:29.995Z,2.60
2022-10-10T11:38:02.407Z,3.10
2022-10-10T11:40:36.134Z,2.43
2022-10-10T11:43:06.027Z,2.47
2022-10-10T11:45:39.581Z,2.60
2022-10-10T11:48:15.016Z,2.57
2022-10-10T11:50:47.023Z,2.33
2022-10-10T11:53:20.981Z,2.70
2022-10-10T11:55:54.190Z,2.97
2022-10-10T11:58:33.284Z,2.90
2022-10-10T12:01:06.232Z,3.10
2022-10-10T12:03:35.014Z,2.90
2022-10-10T12:06:06.123Z,2.17
2022-10-10T12:08:37.070Z,2.47
2022-10-10T12:11:11.472Z,2.40
2022-10-10T12:13:40.402Z,2.87
2022-10-10T12:16:11.197Z,3.07
2022-10-10T12:18:41.147Z,3.23
2022-10-10T12:21:10.390Z,2.53
2022-10-10T12:23:38.624Z,2.50
2022-10-10T12:26:07.551Z,2.43
2022-10-10T12:28:37.697Z,2.70
2022-10-10T12:31:38.893Z,2.70
2022-10-10T12:34:19.362Z,2.90
2022-10-10T12:37:13.327Z,2.73
2022-10-10T12:40:02.922Z,3.07
2022-10-10T12:42:32.488Z,2.80
2022-10-10T12:45:03.848Z,2.50
2022-10-10T12:48:04.616Z,2.50
2022-10-10T12:50:35.386Z,2.60
2022-10-10T12:53:21.373Z,2.90
2022-10-10T12:55:50.470Z,2.37
2022-10-10T12:58:27.082Z,2.43
2022-10-10T13:00:57.107Z,3.07
2022-10-10T13:03:32.352Z,2.47
2022-10-10T13:06:05.247Z,2.87
2022-10-10T13:08:33.421Z,2.47
2022-10-10T13:11:06.919Z,3.30
2022-10-10T13:13:34.976Z,2.83
2022-10-10T13:16:08.321Z,2.43
2022-10-10T13:18:39.314Z,2.37
2022-10-10T13:21:08.883Z,2.83
2022-10-10T13:23:37.470Z,2.80
2022-10-10T13:26:05.520Z,2.60
2022-10-10T13:28:33.698Z,2.83
2022-10-10T13:31:01.900Z,2.80
2022-10-10T13:33:32.431Z,2.47
2022-10-10T13:36:07.526Z,2.40
2022-10-10T13:38:35.530Z,2.50
2022-10-10T13:41:04.525Z,2.80
2022-10-10T13:43:33.427Z,3.03
2022-10-10T13:46:02.312Z,2.40
2022-10-10T13:48:39.014Z,2.50
2022-10-10T13:51:10.433Z,2.80
2022-10-10T13:53:50.593Z,3.00
2022-10-10T13:56:22.589Z,3.07
2022-10-10T13:58:51.989Z,3.00
2022-10-10T14:01:29.618Z,2.90
2022-10-10T14:03:59.519Z,2.60
2022-10-10T14:06:28.938Z,2.53
2022-10-10T14:09:04.112Z,2.97
2022-10-10T14:11:32.193Z,3.10
2022-10-10T14:14:03.933Z,3.03
2022-10-10T14:16:31.981Z,2.70
2022-10-10T14:19:00.092Z,2.80
2022-10-10T14:21:29.502Z,2.83
2022-10-10T14:23:57.513Z,3.00
2022-10-10T14:26:25.835Z,3.30
2022-10-10T14:28:53.933Z,2.80
2022-10-10T14:31:22.116Z,3.07
2022-10-10T14:33:50.169Z,3.00
2022-10-10T14:36:18.165Z,3.10
2022-10-10T14:38:47.636Z,2.90
2022-10-10T14:41:15.939Z,3.10
2022-10-10T14:43:46.012Z,3.17
2022-10-10T14:46:17.594Z,3.13
2022-10-10T14:48:45.598Z,3.17
2022-10-10T14:51:34.544Z,2.73
2022-10-10T14:54:10.790Z,3.30
2022-10-10T14:57:07.411Z,3.00
2022-10-10T14:59:47.143Z,3.00
2022-10-10T15:02:19.098Z,3.03
2022-10-10T15:04:47.107Z,2.90
2022-10-10T15:07:15.861Z,3.17
2022-10-10T15:12:46.053Z,2.93
2022-10-10T15:15:15.277Z,2.63
2022-10-10T15:17:43.466Z,2.97
2022-10-10T15:20:12.960Z,3.17
2022-10-10T15:22:44.725Z,2.90
2022-10-10T15:25:14.240Z,3.10
2022-10-10T15:27:43.184Z,2.87
2022-10-10T15:30:16.590Z,2.93
2022-10-10T15:32:49.730Z,2.77
2022-10-10T15:35:19.583Z,3.10
2022-10-10T15:37:59.837Z,2.80
2022-10-10T15:40:34.356Z,3.23
2022-10-10T15:43:03.740Z,3.20
2022-10-10T15:46:02.356Z,3.10
2022-10-10T15:48:31.131Z,2.80
2022-10-10T15:51:00.553Z,3.03
2022-10-10T15:53:30.121Z,3.30
2022-10-10T15:56:01.901Z,2.73
2022-10-10T15:58:34.851Z,3.07
2022-10-10T16:01:11.068Z,2.83
2022-10-10T16:03:39.158Z,3.70
2022-10-10T16:06:09.935Z,3.23
2022-10-10T16:08:43.223Z,2.83
2022-10-10T16:11:13.207Z,3.70
2022-10-10T16:14:03.806Z,3.60
2022-10-10T16:26:33.043Z,3.50
2022-10-10T16:29:02.497Z,3.63
2022-10-10T16:31:30.741Z,2.80
2022-10-10T16:33:59.860Z,3.50
2022-10-10T16:36:29.092Z,3.07
2022-10-10T16:38:58.037Z,3.27
2022-10-10T16:41:46.644Z,3.77
2022-10-10T16:44:16.419Z,3.30
2022-10-10T16:46:45.778Z,3.00
2022-10-10T16:49:13.998Z,3.67
2022-10-10T16:51:42.171Z,4.03
2022-10-10T16:54:10.259Z,3.63
2022-10-10T16:56:38.344Z,3.10
2022-10-10T16:59:06.549Z,2.97
2022-10-10T17:01:36.430Z,3.33
2022-10-10T17:04:04.870Z,3.87
2022-10-10T17:06:37.557Z,3.67
2022-10-10T17:09:07.103Z,3.30
2022-10-10T17:11:35.546Z,3.57
2022-10-10T17:14:03.777Z,3.50
2022-10-10T17:19:21.780Z,3.47
2022-10-10T17:21:49.886Z,4.17
2022-10-10T17:24:18.029Z,3.97
2022-10-10T17:26:46.157Z,3.20
2022-10-10T17:29:23.680Z,3.60
2022-10-10T17:31:51.722Z,3.80
2022-10-10T17:34:22.046Z,4.03
2022-10-10T17:36:50.129Z,3.60
2022-10-10T17:39:18.261Z,4.10
2022-10-10T17:41:49.217Z,3.60
2022-10-10T17:44:17.557Z,3.83
2022-10-10T17:46:45.944Z,3.93
2022-10-10T17:49:14.269Z,3.40
2022-10-10T17:51:43.746Z,3.83
2022-10-10T17:54:13.435Z,4.40
2022-10-10T17:56:44.553Z,3.27
2022-10-10T17:59:12.592Z,3.83
2022-10-10T18:01:41.085Z,3.70
2022-10-10T18:04:09.237Z,3.73
2022-10-10T18:06:37.865Z,3.50
2022-10-10T18:09:07.753Z,3.70
2022-10-10T18:11:35.851Z,3.80
2022-10-10T18:14:04.381Z,4.00
2022-10-10T18:16:34.022Z,3.40
2022-10-10T18:19:15.390Z,3.90
2022-10-10T18:21:43.528Z,2.93
2022-10-10T18:24:13.090Z,3.83
2022-10-10T18:26:41.143Z,4.00
2022-10-10T18:29:09.269Z,3.53
2022-10-10T18:31:38.267Z,3.60
2022-10-10T18:34:13.044Z,3.40
2022-10-10T18:36:42.447Z,4.10
2022-10-10T18:39:14.467Z,4.30
2022-10-10T18:41:42.628Z,3.30
2022-10-10T18:44:12.522Z,3.87
2022-10-10T18:46:41.341Z,3.47
2022-10-10T18:49:10.029Z,4.60
2022-10-10T18:51:39.934Z,4.87
2022-10-10T18:54:09.065Z,4.73
2022-10-10T18:56:39.336Z,4.47
2022-10-10T18:59:08.227Z,4.33
2022-10-10T19:01:39.664Z,4.57
2022-10-10T19:04:08.603Z,4.67
2022-10-10T19:06:36.797Z,4.87
2022-10-10T19:09:05.258Z,4.97
2022-10-10T19:11:34.570Z,5.27
2022-10-10T19:14:05.297Z,4.83
2022-10-10T19:16:33.687Z,4.97
2022-10-10T19:19:01.963Z,5.30
2022-10-10T19:21:31.235Z,5.00
2022-10-10T19:23:59.900Z,5.07
2022-10-10T19:26:27.974Z,5.50
2022-10-10T19:28:56.080Z,5.80
2022-10-10T19:31:26.991Z,4.00
2022-10-10T19:33:55.236Z,6.10
2022-10-10T19:36:23.520Z,5.43
2022-10-10T19:38:51.624Z,4.60
2022-10-10T19:41:20.343Z,5.60
2022-10-10T19:43:49.121Z,5.70
2022-10-10T19:46:18.021Z,5.87
2022-10-10T19:48:47.519Z,5.30
2022-10-10T19:51:16.221Z,4.63
2022-10-10T19:53:44.317Z,5.37
2022-10-10T19:56:13.839Z,5.57
2022-10-10T19:58:41.959Z,5.93
2022-10-10T20:01:10.441Z,4.90
2022-10-10T20:03:38.543Z,5.67
2022-10-10T20:06:08.225Z,5.47
2022-10-10T20:08:36.321Z,4.70
2022-10-10T20:11:04.778Z,5.00
2022-10-10T20:13:32.875Z,5.67
2022-10-10T20:16:03.560Z,6.53
2022-10-10T20:18:33.380Z,5.23
2022-10-10T20:21:01.421Z,5.73
2022-10-10T20:23:31.259Z,5.10
2022-10-10T20:25:59.339Z,5.20
2022-10-10T20:28:27.455Z,4.87
2022-10-10T20:30:55.582Z,5.27
2022-10-10T20:33:23.633Z,4.60
2022-10-10T20:35:55.951Z,5.20
2022-10-10T20:38:24.708Z,4.97
2022-10-10T20:40:54.201Z,5.00
2022-10-10T20:43:22.311Z,5.23
2022-10-10T20:45:50.395Z,4.93
2022-10-10T20:48:18.450Z,5.47
2022-10-10T20:50:46.771Z,4.80
2022-10-10T20:53:14.859Z,5.60
2022-10-10T20:55:42.928Z,5.30
2022-10-10T20:58:13.102Z,5.30
2022-10-10T21:00:44.953Z,4.87
2022-10-10T21:03:13.707Z,5.10
2022-10-10T21:05:42.739Z,4.67
2022-10-10T21:08:11.454Z,5.00
2022-10-10T21:10:43.110Z,4.63
2022-10-10T21:13:13.389Z,4.80
2022-10-10T21:15:44.918Z,5.03
2022-10-10T21:18:13.883Z,4.70
2022-10-10T21:20:42.883Z,4.97
2022-10-10T21:23:11.850Z,4.30
2022-10-10T21:25:40.529Z,4.63
2022-10-10T21:28:09.297Z,4.53
2022-10-10T21:30:39.537Z,4.87
2022-10-10T21:33:08.654Z,4.53
2022-10-10T21:35:37.659Z,4.40
2022-10-10T21:38:06.838Z,4.40
2022-10-10T21:40:36.649Z,4.87
2022-10-10T21:43:05.438Z,4.63
2022-10-10T21:45:35.913Z,4.37
2022-10-10T21:48:06.308Z,4.73
2022-10-10T21:50:35.180Z,4.43
2022-10-10T21:53:03.906Z,4.60
2022-10-10T21:55:32.705Z,4.53
2022-10-10T21:58:01.460Z,4.60
2022-10-10T22:00:30.634Z,4.90
2022-10-10T22:02:59.584Z,4.83
2022-10-10T22:05:29.661Z,4.67
2022-10-10T22:07:58.255Z,4.30
2022-10-10T22:10:27.746Z,4.33
2022-10-10T22:12:57.039Z,4.63
2022-10-10T22:15:26.270Z,4.63
2022-10-10T22:17:54.929Z,4.53
2022-10-10T22:20:23.663Z,4.93
2022-10-10T22:22:53.938Z,4.77
2022-10-10T22:25:22.703Z,4.57
2022-10-10T22:27:56.331Z,4.67
2022-10-10T22:30:25.831Z,4.70
2022-10-10T22:33:06.177Z,4.70
2022-10-10T22:35:34.492Z,4.87
2022-10-10T22:38:03.903Z,4.90
2022-10-10T22:40:32.101Z,4.67
2022-10-10T22:43:00.419Z,4.83
2022-10-10T22:45:29.199Z,5.70
2022-10-10T22:47:57.269Z,4.97
2022-10-10T22:50:25.310Z,5.70
2022-10-10T22:52:53.434Z,5.37
2022-10-10T22:55:23.161Z,5.03
2022-10-10T22:57:51.216Z,4.70
2022-10-10T23:00:19.499Z,4.97
2022-10-10T23:02:47.500Z,5.93
2022-10-10T23:05:15.783Z,5.07
2022-10-10T23:07:43.790Z,5.53
2022-10-10T23:10:12.114Z,4.90
2022-10-10T23:12:41.543Z,5.17
2022-10-10T23:15:10.188Z,5.40
2022-10-10T23:17:38.247Z,5.40
2022-10-10T23:20:07.515Z,4.30
2022-10-10T23:22:35.771Z,4.43
2022-10-10T23:25:03.831Z,4.23
2022-10-10T23:27:31.817Z,5.00
2022-10-10T23:30:01.291Z,4.57
2022-10-10T23:32:30.441Z,4.80
2022-10-10T23:34:58.610Z,4.93
2022-10-10T23:37:27.966Z,4.60
2022-10-10T23:39:56.065Z,5.80
2022-10-10T23:42:24.071Z,5.43
2022-10-10T23:44:52.124Z,5.57
2022-10-10T23:47:21.718Z,5.77
2022-10-10T23:49:50.022Z,6.07
2022-10-10T23:52:18.233Z,5.60
2022-10-10T23:54:46.212Z,5.30
2022-10-10T23:57:14.247Z,5.73
2022-10-10T23:59:42.282Z,5.40
